createdAt,value
2023-04-15T00:04:42.020Z,24.08
2023-04-15T00:09:44.817Z,24.11
2023-04-15T00:14:46.985Z,24.02
2023-04-15T00:19:49.079Z,24.41
2023-04-15T00:24:51.486Z,24.25
2023-04-15T00:29:53.542Z,24.31
2023-04-15T00:34:56.477Z,24.68
2023-04-15T00:39:58.957Z,24.70
2023-04-15T00:45:01.334Z,24.73
2023-04-15T00:50:05.352Z,24.27
2023-04-15T00:55:08.257Z,24.38
2023-04-15T01:00:12.141Z,24.73
2023-04-15T01:05:17.318Z,25.05
2023-04-15T01:10:19.627Z,25.17
2023-04-15T01:15:21.981Z,24.89
2023-04-15T01:20:24.569Z,25.08
2023-04-15T01:25:35.524Z,24.96
2023-04-15T01:30:38.093Z,25.13
2023-04-15T01:35:40.261Z,25.08
2023-04-15T01:40:43.411Z,25.31
2023-04-15T01:45:47.160Z,25.25
2023-04-15T01:50:50.908Z,25.17
2023-04-15T01:55:54.261Z,25.55
2023-04-15T02:00:57.688Z,25.10
2023-04-15T02:06:01.159Z,25.47
2023-04-15T02:11:05.358Z,25.84
2023-04-15T02:16:19.263Z,25.73
2023-04-15T02:21:22.773Z,26.04
2023-04-15T02:26:26.091Z,26.27
2023-04-15T02:31:34.136Z,26.06
2023-04-15T02:36:37.714Z,25.82
2023-04-15T02:41:43.916Z,25.96
2023-04-15T02:46:51.026Z,26.34
2023-04-15T02:51:55.502Z,26.20
2023-04-15T02:56:58.876Z,26.02
2023-04-15T03:02:02.266Z,26.24
2023-04-15T03:07:05.787Z,25.87
2023-04-15T03:12:09.575Z,25.78
2023-04-15T03:17:12.926Z,25.94
2023-04-15T03:22:16.349Z,25.63
2023-04-15T03:27:19.873Z,25.35
2023-04-15T03:32:24.041Z,25.47
2023-04-15T03:37:27.632Z,25.62
2023-04-15T03:42:31.023Z,25.14
2023-04-15T03:47:35.452Z,24.68
2023-04-15T03:52:38.794Z,24.95
2023-04-15T03:57:42.112Z,24.73
2023-04-15T04:02:46.282Z,24.82
2023-04-15T04:07:49.762Z,24.61
2023-04-15T04:12:53.059Z,24.56
2023-04-15T04:17:56.572Z,24.56
2023-04-15T04:23:00.099Z,24.23
2023-04-15T04:28:03.957Z,24.62
2023-04-15T04:33:07.676Z,24.44
2023-04-15T04:38:11.212Z,23.73
2023-04-15T04:43:16.205Z,23.81
2023-04-15T04:48:20.028Z,23.73
2023-04-15T04:53:23.458Z,23.86
2023-04-15T04:58:27.398Z,23.59
2023-04-15T05:03:30.985Z,23.59
2023-04-15T05:08:34.621Z,23.02
2023-04-15T05:13:38.902Z,23.35
2023-04-15T05:18:42.210Z,22.64
2023-04-15T05:23:45.589Z,22.24
2023-04-15T05:28:49.750Z,22.00
2023-04-15T05:33:53.104Z,22.15
2023-04-15T05:38:56.524Z,21.77
2023-04-15T05:43:59.839Z,22.04
2023-04-15T05:49:03.492Z,21.40
2023-04-15T05:54:07.062Z,20.67
2023-04-15T05:59:11.692Z,20.72
2023-04-15T06:04:15.582Z,20.95
2023-04-15T06:09:19.034Z,20.32
2023-04-15T06:14:22.405Z,20.18
2023-04-15T06:19:26.276Z,19.73
2023-04-15T06:24:29.642Z,19.49
2023-04-15T06:29:33.018Z,19.98
2023-04-15T06:34:36.469Z,19.06
2023-04-15T06:39:40.312Z,18.72
2023-04-15T06:44:43.861Z,18.53
2023-04-15T06:49:47.147Z,18.00
2023-04-15T06:54:50.662Z,17.07
2023-04-15T06:59:54.739Z,17.74
2023-04-15T07:04:58.097Z,16.32
2023-04-15T07:10:03.446Z,15.69
2023-04-15T07:15:07.311Z,14.56
2023-04-15T07:20:11.125Z,13.51
2023-04-15T07:25:14.439Z,12.62
2023-04-15T07:30:18.064Z,11.38
2023-04-15T07:35:21.581Z,10.38
2023-04-15T07:40:24.975Z,10.75
2023-04-15T07:45:28.672Z,10.01
2023-04-15T07:50:32.134Z,9.16
2023-04-15T07:55:35.509Z,9.11
2023-04-15T08:00:39.196Z,8.58
2023-04-15T08:05:42.566Z,7.87
2023-04-15T08:10:46.029Z,7.61
2023-04-15T08:16:19.086Z,8.64
2023-04-15T08:21:24.013Z,6.73
2023-04-15T08:26:27.346Z,6.88
2023-04-15T08:31:30.836Z,6.32
2023-04-15T08:36:34.189Z,6.14
2023-04-15T08:41:46.455Z,5.90
2023-04-15T08:46:50.245Z,5.93
2023-04-15T08:51:53.747Z,5.66
2023-04-15T08:56:58.819Z,5.15
2023-04-15T09:02:04.056Z,5.00
2023-04-15T09:07:07.541Z,5.66
2023-04-15T09:12:12.327Z,5.76
2023-04-15T09:17:19.612Z,5.75
2023-04-15T09:22:22.974Z,5.39
2023-04-15T09:27:26.707Z,5.92
2023-04-15T09:32:30.223Z,5.83
2023-04-15T09:37:37.044Z,6.58
2023-04-15T09:42:56.503Z,7.03
2023-04-15T09:48:14.562Z,7.30
2023-04-15T09:53:20.479Z,6.98
2023-04-15T09:58:29.498Z,7.26
2023-04-15T10:03:36.972Z,7.45
2023-04-15T10:08:41.805Z,7.49
2023-04-15T10:13:47.333Z,7.76
2023-04-15T10:18:56.100Z,7.89
2023-04-15T10:24:03.280Z,8.18
2023-04-15T10:29:07.098Z,7.93
2023-04-15T10:34:11.427Z,8.65
2023-04-15T10:39:33.337Z,8.65
2023-04-15T10:44:38.942Z,8.43
2023-04-15T10:49:50.647Z,8.33
2023-04-15T10:55:16.567Z,8.72
2023-04-15T11:00:24.622Z,8.56
2023-04-15T11:05:43.300Z,8.31
2023-04-15T11:10:46.517Z,8.34
2023-04-15T11:15:50.173Z,8.13
2023-04-15T11:20:57.555Z,8.00
2023-04-15T11:26:03.916Z,7.74
2023-04-15T11:31:16.537Z,7.39
2023-04-15T11:36:19.892Z,7.67
2023-04-15T11:41:23.907Z,8.13
2023-04-15T11:46:31.941Z,7.82
2023-04-15T11:51:36.150Z,7.33
2023-04-15T11:56:38.518Z,7.78
2023-04-15T12:01:43.767Z,8.22
2023-04-15T12:06:46.323Z,8.11
2023-04-15T12:11:55.515Z,7.91
2023-04-15T12:17:01.550Z,7.93
2023-04-15T12:22:06.704Z,8.25
2023-04-15T12:27:17.152Z,8.40
2023-04-15T12:32:22.886Z,8.40
2023-04-15T12:37:26.796Z,8.44
2023-04-15T12:42:29.625Z,8.21
2023-04-15T12:47:31.816Z,8.80
2023-04-15T12:52:33.946Z,9.35
2023-04-15T12:57:36.178Z,9.41
2023-04-15T13:02:38.553Z,9.46
2023-04-15T13:07:42.600Z,9.47
2023-04-15T13:12:46.979Z,9.97
2023-04-15T13:17:50.699Z,9.45
2023-04-15T13:22:54.212Z,10.01
2023-04-15T13:27:57.727Z,10.87
2023-04-15T13:33:00.191Z,10.45
2023-04-15T13:38:02.438Z,10.94
2023-04-15T13:43:04.937Z,10.76
2023-04-15T13:48:07.350Z,11.04
2023-04-15T13:53:09.482Z,11.21
2023-04-15T13:58:11.874Z,11.46
2023-04-15T14:03:14.108Z,11.56
2023-04-15T14:08:16.403Z,11.91
2023-04-15T14:13:19.782Z,12.38
2023-04-15T14:18:21.964Z,12.84
2023-04-15T14:23:23.977Z,11.56
2023-04-15T14:28:26.225Z,12.39
2023-04-15T14:33:28.397Z,12.88
2023-04-15T14:38:30.699Z,12.43
2023-04-15T14:43:33.421Z,13.17
2023-04-15T14:48:35.838Z,13.47
2023-04-15T14:53:38.052Z,13.48
2023-04-15T14:58:40.045Z,12.87
2023-04-15T15:03:42.381Z,13.11
2023-04-15T15:08:44.676Z,13.31
2023-04-15T15:13:47.837Z,13.80
2023-04-15T15:18:51.430Z,13.40
2023-04-15T15:23:53.592Z,14.38
2023-04-15T15:28:55.734Z,13.76
2023-04-15T15:33:58.065Z,13.53
2023-04-15T15:39:00.385Z,14.31
2023-04-15T15:44:02.583Z,14.94
2023-04-15T15:49:05.066Z,14.85
2023-04-15T15:54:07.366Z,14.50
2023-04-15T15:59:09.384Z,14.01
2023-04-15T16:04:11.766Z,14.68
2023-04-15T16:09:14.231Z,16.14
2023-04-15T16:14:16.394Z,15.72
2023-04-15T16:19:18.588Z,15.61
2023-04-15T16:24:21.197Z,15.88
2023-04-15T16:29:23.180Z,14.50
2023-04-15T16:34:25.552Z,15.97
2023-04-15T16:39:27.707Z,16.17
2023-04-15T16:44:30.223Z,14.84
2023-04-15T16:49:32.190Z,15.05
2023-04-15T16:54:35.867Z,16.22
2023-04-15T16:59:38.321Z,16.86
2023-04-15T17:04:41.865Z,17.06
2023-04-15T17:09:44.741Z,17.33
2023-04-15T17:14:46.954Z,17.67
2023-04-15T17:19:50.023Z,17.09
2023-04-15T17:24:54.334Z,17.26
2023-04-15T17:29:58.150Z,17.04
2023-04-15T17:35:20.443Z,17.08
2023-04-15T17:40:42.323Z,15.68
2023-04-15T17:46:05.454Z,18.05
2023-04-15T17:51:28.186Z,18.17
2023-04-15T17:57:03.337Z,18.27
2023-04-15T18:02:25.808Z,18.66
2023-04-15T18:07:48.077Z,18.98
2023-04-15T18:13:10.358Z,18.77
2023-04-15T18:18:32.577Z,17.73
2023-04-15T18:23:35.458Z,19.11
2023-04-15T18:28:40.254Z,17.10
2023-04-15T18:33:42.347Z,19.22
2023-04-15T18:38:46.996Z,17.86
2023-04-15T18:44:39.273Z,18.24
2023-04-15T18:57:42.595Z,19.06
2023-04-15T19:02:46.793Z,19.34
2023-04-15T19:07:51.238Z,19.94
2023-04-15T19:12:53.359Z,19.58
2023-04-15T19:17:55.702Z,20.05
2023-04-15T19:22:57.863Z,19.98
2023-04-15T19:28:00.163Z,18.66
2023-04-15T19:33:02.300Z,20.24
2023-04-15T19:38:05.125Z,20.56
2023-04-15T19:43:07.281Z,20.24
2023-04-15T19:48:09.468Z,20.28
2023-04-15T19:53:11.664Z,20.79
2023-04-15T19:58:13.830Z,20.55
2023-04-15T20:03:16.397Z,20.20
2023-04-15T20:08:19.013Z,20.99
2023-04-15T20:13:21.138Z,20.45
2023-04-15T20:18:23.376Z,21.15
2023-04-15T20:23:25.721Z,20.99
2023-04-15T20:28:27.890Z,20.58
2023-04-15T20:33:29.904Z,19.24
2023-04-15T20:38:32.085Z,21.27
2023-04-15T20:43:34.164Z,21.18
2023-04-15T20:48:36.159Z,19.46
2023-04-15T20:53:38.261Z,21.18
2023-04-15T20:58:40.455Z,21.67
2023-04-15T21:03:42.836Z,21.74
2023-04-15T21:08:45.041Z,21.06
2023-04-15T21:13:47.156Z,21.81
2023-04-15T21:18:49.379Z,21.44
2023-04-15T21:23:51.550Z,21.47
2023-04-15T21:28:53.709Z,21.70
2023-04-15T21:33:56.130Z,21.46
2023-04-15T21:38:58.294Z,21.58
2023-04-15T21:44:00.515Z,21.44
2023-04-15T21:49:02.444Z,19.85
2023-04-15T21:54:04.572Z,21.39
2023-04-15T21:59:06.970Z,21.65
2023-04-15T22:04:11.194Z,21.90
2023-04-15T22:09:14.316Z,21.53
2023-04-15T22:14:16.891Z,21.69
2023-04-15T22:19:19.104Z,21.47
2023-04-15T22:24:32.746Z,21.68
2023-04-15T22:29:41.871Z,21.86
2023-04-15T22:34:44.044Z,22.02
2023-04-15T22:39:46.538Z,22.19
2023-04-15T22:44:50.071Z,21.38
2023-04-15T22:49:52.188Z,22.28
2023-04-15T22:54:54.329Z,22.29
2023-04-15T22:59:56.632Z,21.99
2023-04-15T23:04:58.839Z,22.03
2023-04-15T23:10:01.514Z,22.20
2023-04-15T23:15:04.139Z,22.69
2023-04-15T23:20:09.498Z,22.34
2023-04-15T23:25:11.599Z,22.93
2023-04-15T23:30:13.813Z,22.49
2023-04-15T23:35:16.764Z,22.84
2023-04-15T23:40:18.910Z,22.98
2023-04-15T23:45:21.046Z,22.52
2023-04-15T23:50:23.329Z,22.99
2023-04-15T23:55:25.615Z,23.41
